createdAt,value
2022-11-03T00:01:12.784Z,21.97
2022-11-03T00:03:39.364Z,21.98
2022-11-03T00:06:05.910Z,21.95
2022-11-03T00:08:37.728Z,21.95
2022-11-03T00:11:04.917Z,21.94
2022-11-03T00:13:31.358Z,21.94
2022-11-03T00:15:58.542Z,21.91
2022-11-03T00:18:24.970Z,21.90
2022-11-03T00:20:59.548Z,21.90
2022-11-03T00:23:30.689Z,21.87
2022-11-03T00:26:23.354Z,21.88
2022-11-03T00:28:52.065Z,21.87
2022-11-03T00:31:21.497Z,21.87
2022-11-03T00:33:48.598Z,21.85
2022-11-03T00:36:18.610Z,21.83
2022-11-03T00:38:45.645Z,21.83
2022-11-03T00:41:12.905Z,21.83
2022-11-03T00:43:39.937Z,21.82
2022-11-03T00:46:08.386Z,21.81
2022-11-03T00:48:36.228Z,21.81
2022-11-03T00:51:13.540Z,21.79
2022-11-03T00:53:53.283Z,21.79
2022-11-03T00:56:28.312Z,21.78
2022-11-03T00:58:55.917Z,21.78
2022-11-03T01:01:25.589Z,21.77
2022-11-03T01:04:13.157Z,21.76
2022-11-03T01:06:51.037Z,21.73
2022-11-03T01:09:18.146Z,21.74
2022-11-03T01:11:56.754Z,21.73
2022-11-03T01:14:23.695Z,21.73
2022-11-03T01:16:50.148Z,21.72
2022-11-03T01:19:16.663Z,21.71
2022-11-03T01:21:44.190Z,21.70
2022-11-03T01:24:10.590Z,21.70
2022-11-03T01:26:36.998Z,21.68
2022-11-03T01:29:03.599Z,21.69
2022-11-03T01:31:30.063Z,21.69
2022-11-03T01:33:57.405Z,21.68
2022-11-03T01:36:24.649Z,21.67
2022-11-03T01:38:51.331Z,21.66
2022-11-03T01:41:26.520Z,21.67
2022-11-03T01:44:08.259Z,21.66
2022-11-03T01:46:51.701Z,21.64
2022-11-03T01:49:24.403Z,21.63
2022-11-03T01:51:57.593Z,21.65
2022-11-03T01:54:28.110Z,21.64
2022-11-03T01:56:55.350Z,21.63
2022-11-03T01:59:23.960Z,21.61
2022-11-03T02:01:50.682Z,21.60
2022-11-03T02:04:29.350Z,21.59
2022-11-03T02:07:25.271Z,21.60
2022-11-03T02:09:52.007Z,21.58
2022-11-03T02:12:21.102Z,21.58
2022-11-03T02:14:57.860Z,21.58
2022-11-03T02:17:27.470Z,21.57
2022-11-03T02:20:04.708Z,21.56
2022-11-03T02:22:36.862Z,21.54
2022-11-03T02:25:15.480Z,21.55
2022-11-03T02:27:42.250Z,21.53
2022-11-03T02:30:09.548Z,21.53
2022-11-03T02:32:56.023Z,21.51
2022-11-03T02:35:30.166Z,21.51
2022-11-03T02:38:01.059Z,21.51
2022-11-03T02:40:38.941Z,21.48
2022-11-03T02:43:06.495Z,21.48
2022-11-03T02:45:33.341Z,21.47
2022-11-03T02:48:01.814Z,21.47
2022-11-03T02:50:30.357Z,21.47
2022-11-03T02:52:57.532Z,21.46
2022-11-03T02:55:29.801Z,21.47
2022-11-03T02:58:06.750Z,21.46
2022-11-03T03:00:40.974Z,21.45
2022-11-03T03:03:41.581Z,21.43
2022-11-03T03:06:16.446Z,21.44
2022-11-03T03:08:48.883Z,21.45
2022-11-03T03:11:15.801Z,21.44
2022-11-03T03:13:43.964Z,21.42
2022-11-03T03:16:16.569Z,21.42
2022-11-03T03:19:17.802Z,21.41
2022-11-03T03:21:47.096Z,21.39
2022-11-03T03:24:23.598Z,21.41
2022-11-03T03:26:51.914Z,21.39
2022-11-03T03:29:22.750Z,21.39
2022-11-03T03:31:55.525Z,21.38
2022-11-03T03:34:34.769Z,21.37
2022-11-03T03:37:05.107Z,21.38
2022-11-03T03:39:36.143Z,21.37
2022-11-03T03:42:03.864Z,21.37
2022-11-03T03:44:31.822Z,21.35
2022-11-03T03:47:05.840Z,21.36
2022-11-03T03:49:32.244Z,21.35
2022-11-03T03:51:59.344Z,21.33
2022-11-03T03:54:25.741Z,21.33
2022-11-03T03:56:59.435Z,21.31
2022-11-03T03:59:25.878Z,21.32
2022-11-03T04:01:52.440Z,21.33
2022-11-03T04:04:19.002Z,21.33
2022-11-03T04:06:45.500Z,21.31
2022-11-03T04:09:12.130Z,21.31
2022-11-03T04:12:10.898Z,21.28
2022-11-03T04:14:55.714Z,21.29
2022-11-03T04:17:41.071Z,21.27
2022-11-03T04:20:31.947Z,21.27
2022-11-03T04:22:58.402Z,21.24
2022-11-03T04:25:24.880Z,21.24
2022-11-03T04:27:51.356Z,21.24
2022-11-03T04:30:20.025Z,21.22
2022-11-03T04:32:48.370Z,21.21
2022-11-03T04:35:23.408Z,21.21
2022-11-03T04:38:00.910Z,21.21
2022-11-03T04:40:28.300Z,21.21
2022-11-03T04:42:55.551Z,21.21
2022-11-03T04:45:31.563Z,21.21
2022-11-03T04:47:59.962Z,21.20
2022-11-03T04:50:26.646Z,21.20
2022-11-03T04:52:58.026Z,21.19
2022-11-03T04:55:24.781Z,21.19
2022-11-03T04:57:57.114Z,21.18
2022-11-03T05:00:23.792Z,21.20
2022-11-03T05:02:55.815Z,21.19
2022-11-03T05:05:26.337Z,21.18
2022-11-03T05:07:56.664Z,21.17
2022-11-03T05:10:29.273Z,21.17
2022-11-03T05:12:57.042Z,21.17
2022-11-03T05:15:30.496Z,21.17
2022-11-03T05:17:59.495Z,21.16
2022-11-03T05:20:39.792Z,21.16
2022-11-03T05:23:07.130Z,21.14
2022-11-03T05:25:45.017Z,21.15
2022-11-03T05:28:31.878Z,21.13
2022-11-03T05:30:58.343Z,21.14
2022-11-03T05:33:33.710Z,21.15
2022-11-03T05:36:12.012Z,21.17
2022-11-03T05:38:38.433Z,21.22
2022-11-03T05:41:14.363Z,21.25
2022-11-03T05:43:40.799Z,21.28
2022-11-03T05:46:11.009Z,21.34
2022-11-03T05:48:45.482Z,21.38
2022-11-03T05:51:34.027Z,21.43
2022-11-03T05:54:04.436Z,21.47
2022-11-03T05:56:31.603Z,21.52
2022-11-03T05:59:00.286Z,21.57
2022-11-03T06:01:31.323Z,21.62
2022-11-03T06:04:12.658Z,21.65
2022-11-03T06:06:39.239Z,21.69
2022-11-03T06:09:19.704Z,21.72
2022-11-03T06:11:46.326Z,21.76
2022-11-03T06:14:24.093Z,21.79
2022-11-03T06:16:58.032Z,21.82
2022-11-03T06:19:41.483Z,21.87
2022-11-03T06:22:31.044Z,21.90
2022-11-03T06:25:12.661Z,21.93
2022-11-03T06:27:39.394Z,21.96
2022-11-03T06:30:28.415Z,21.98
2022-11-03T06:32:58.631Z,22.02
2022-11-03T06:35:25.662Z,22.04
2022-11-03T06:37:52.289Z,22.07
2022-11-03T06:40:22.222Z,22.10
2022-11-03T06:42:48.620Z,22.13
2022-11-03T06:45:20.626Z,22.14
2022-11-03T06:47:47.471Z,22.19
2022-11-03T06:50:24.872Z,22.20
2022-11-03T06:52:52.949Z,22.24
2022-11-03T06:55:26.250Z,22.26
2022-11-03T06:57:59.510Z,22.30
2022-11-03T07:00:36.204Z,22.33
2022-11-03T07:03:27.289Z,22.36
2022-11-03T07:05:59.198Z,22.39
2022-11-03T07:08:37.898Z,22.41
2022-11-03T07:11:14.428Z,22.44
2022-11-03T07:13:41.583Z,22.47
2022-11-03T07:16:29.433Z,22.49
2022-11-03T07:18:59.157Z,22.51
2022-11-03T07:21:38.024Z,22.51
2022-11-03T07:24:15.731Z,22.52
2022-11-03T07:26:42.185Z,22.52
2022-11-03T07:29:22.215Z,22.52
2022-11-03T07:31:51.434Z,22.52
2022-11-03T07:34:24.190Z,22.51
2022-11-03T07:36:55.313Z,22.52
2022-11-03T07:39:22.399Z,22.52
2022-11-03T07:41:49.485Z,22.52
2022-11-03T07:44:20.777Z,22.52
2022-11-03T07:46:49.800Z,22.53
2022-11-03T07:49:36.459Z,22.52
2022-11-03T07:52:11.521Z,22.55
2022-11-03T07:54:38.074Z,22.56
2022-11-03T07:57:11.139Z,22.59
2022-11-03T07:59:41.877Z,22.59
2022-11-03T08:02:29.577Z,22.61
2022-11-03T08:04:56.077Z,22.64
2022-11-03T08:07:22.604Z,22.66
2022-11-03T08:09:49.024Z,22.71
2022-11-03T08:12:15.539Z,22.71
2022-11-03T08:14:41.987Z,22.74
2022-11-03T08:17:08.477Z,22.79
2022-11-03T08:19:34.960Z,22.81
2022-11-03T08:22:01.368Z,22.81
2022-11-03T08:24:28.031Z,22.87
2022-11-03T08:26:54.473Z,22.85
2022-11-03T08:29:21.426Z,22.92
2022-11-03T08:31:47.855Z,22.95
2022-11-03T08:34:14.259Z,22.97
2022-11-03T08:36:40.717Z,23.01
2022-11-03T08:39:07.240Z,23.06
2022-11-03T08:41:33.762Z,23.08
2022-11-03T08:44:00.256Z,23.10
2022-11-03T08:46:26.775Z,23.13
2022-11-03T08:48:53.438Z,23.13
2022-11-03T08:51:19.851Z,23.14
2022-11-03T08:53:50.458Z,23.12
2022-11-03T08:56:20.419Z,23.14
2022-11-03T08:58:48.855Z,23.17
2022-11-03T09:01:15.313Z,23.19
2022-11-03T09:03:41.967Z,23.19
2022-11-03T09:06:08.771Z,23.22
2022-11-03T09:11:21.755Z,23.28
2022-11-03T09:13:48.247Z,23.30
2022-11-03T09:16:14.680Z,23.30
2022-11-03T09:18:41.093Z,23.34
2022-11-03T09:21:08.829Z,23.34
2022-11-03T09:23:35.380Z,23.35
2022-11-03T09:26:01.814Z,23.35
2022-11-03T09:28:28.284Z,23.36
2022-11-03T09:30:55.000Z,23.37
2022-11-03T09:33:21.605Z,23.39
2022-11-03T09:35:48.087Z,23.43
2022-11-03T09:38:14.537Z,23.43
2022-11-03T09:40:41.318Z,23.47
2022-11-03T09:43:08.501Z,23.48
2022-11-03T09:45:35.182Z,23.51
2022-11-03T09:48:02.330Z,23.52
2022-11-03T09:50:28.842Z,23.56
2022-11-03T09:52:56.624Z,23.56
2022-11-03T09:55:27.417Z,23.58
2022-11-03T09:58:12.828Z,23.58
2022-11-03T10:00:39.333Z,23.62
2022-11-03T10:03:06.278Z,23.61
2022-11-03T10:05:33.540Z,23.65
2022-11-03T10:08:03.504Z,23.65
2022-11-03T10:10:30.671Z,23.67
2022-11-03T10:12:57.686Z,23.67
2022-11-03T10:15:26.091Z,23.69
2022-11-03T10:17:54.261Z,23.71
2022-11-03T10:20:22.388Z,23.71
2022-11-03T10:22:52.576Z,23.69
2022-11-03T10:25:45.958Z,23.71
2022-11-03T10:28:26.894Z,23.73
2022-11-03T10:31:14.313Z,23.69
2022-11-03T10:33:51.122Z,23.72
2022-11-03T10:36:17.553Z,23.75
2022-11-03T10:38:44.317Z,23.77
2022-11-03T10:41:20.827Z,23.81
2022-11-03T10:44:00.900Z,23.82
2022-11-03T10:49:19.466Z,23.93
2022-11-03T10:51:52.402Z,23.96
2022-11-03T10:54:20.567Z,23.97
2022-11-03T10:56:48.207Z,24.01
2022-11-03T10:59:19.042Z,24.04
2022-11-03T11:01:46.295Z,24.09
2022-11-03T11:04:20.838Z,24.15
2022-11-03T11:06:47.964Z,24.20
2022-11-03T11:09:26.970Z,24.23
2022-11-03T11:12:01.188Z,24.28
2022-11-03T11:14:30.562Z,24.30
2022-11-03T11:16:58.652Z,24.33
2022-11-03T11:19:26.841Z,24.36
2022-11-03T11:21:53.743Z,24.37
2022-11-03T11:24:45.321Z,24.39
2022-11-03T11:27:31.832Z,24.42
2022-11-03T11:29:59.309Z,24.48
2022-11-03T11:32:44.426Z,24.52
2022-11-03T11:35:15.460Z,24.58
2022-11-03T11:37:43.217Z,24.61
2022-11-03T11:40:23.386Z,24.68
2022-11-03T11:43:11.203Z,24.67
2022-11-03T11:46:15.328Z,24.67
2022-11-03T11:48:42.126Z,24.71
2022-11-03T11:51:10.749Z,24.70
2022-11-03T11:53:42.030Z,24.70
2022-11-03T11:56:12.183Z,24.67
2022-11-03T11:58:42.426Z,24.72
2022-11-03T12:01:24.313Z,24.70
2022-11-03T12:03:52.317Z,24.75
2022-11-03T12:06:41.798Z,24.75
2022-11-03T12:09:21.787Z,24.75
2022-11-03T12:11:55.635Z,24.74
2022-11-03T12:14:28.718Z,24.81
2022-11-03T12:16:56.035Z,24.83
2022-11-03T12:19:44.372Z,24.86
2022-11-03T12:22:39.520Z,24.92
2022-11-03T12:25:26.969Z,24.98
2022-11-03T12:27:53.438Z,25.05
2022-11-03T12:30:20.035Z,25.08
2022-11-03T12:32:47.381Z,25.14
2022-11-03T12:35:14.384Z,25.15
2022-11-03T12:37:41.915Z,25.20
2022-11-03T12:40:09.771Z,25.22
2022-11-03T12:42:36.271Z,25.23
2022-11-03T12:45:03.000Z,25.23
2022-11-03T12:47:29.527Z,25.25
2022-11-03T12:49:56.005Z,25.26
2022-11-03T12:52:22.463Z,25.27
2022-11-03T12:54:48.927Z,25.27
2022-11-03T12:57:16.637Z,25.29
2022-11-03T12:59:43.092Z,25.31
2022-11-03T13:02:11.225Z,25.32
2022-11-03T13:04:38.026Z,25.30
2022-11-03T13:07:04.556Z,25.31
2022-11-03T13:09:31.021Z,25.31
2022-11-03T13:12:16.176Z,25.31
2022-11-03T13:14:45.956Z,25.31
2022-11-03T13:17:14.390Z,25.30
2022-11-03T13:19:40.920Z,25.28
2022-11-03T13:22:07.375Z,25.24
2022-11-03T13:24:33.857Z,25.19
2022-11-03T13:27:00.390Z,25.15
2022-11-03T13:29:31.091Z,25.12
2022-11-03T13:32:00.693Z,25.07
2022-11-03T13:34:27.434Z,25.02
2022-11-03T13:36:53.892Z,24.96
2022-11-03T13:39:21.195Z,24.92
2022-11-03T13:41:47.984Z,24.87
2022-11-03T13:44:14.485Z,24.83
2022-11-03T13:46:40.889Z,24.78
2022-11-03T13:51:53.839Z,24.69
2022-11-03T13:59:53.237Z,24.54
2022-11-03T14:05:08.779Z,24.47
2022-11-03T14:07:38.034Z,24.41
2022-11-03T14:10:04.799Z,24.39
2022-11-03T14:12:31.368Z,24.37
2022-11-03T14:15:04.144Z,24.34
2022-11-03T14:17:31.338Z,24.29
2022-11-03T14:20:03.733Z,24.27
2022-11-03T14:22:30.864Z,24.30
2022-11-03T14:24:57.482Z,24.27
2022-11-03T14:27:23.968Z,24.26
2022-11-03T14:29:50.516Z,24.29
2022-11-03T14:32:18.068Z,24.31
2022-11-03T14:34:45.233Z,24.31
2022-11-03T14:37:12.864Z,24.36
2022-11-03T14:39:40.112Z,24.38
2022-11-03T14:42:15.021Z,24.42
2022-11-03T14:44:42.685Z,24.43
2022-11-03T14:47:11.440Z,24.48
2022-11-03T14:49:38.113Z,24.47
2022-11-03T14:52:07.159Z,24.51
2022-11-03T14:54:34.559Z,24.53
2022-11-03T14:57:01.128Z,24.58
2022-11-03T14:59:27.787Z,24.60
2022-11-03T15:01:54.933Z,24.60
2022-11-03T15:04:22.341Z,24.60
2022-11-03T15:06:49.258Z,24.59
2022-11-03T15:09:15.952Z,24.63
2022-11-03T15:11:43.333Z,24.63
2022-11-03T15:14:10.908Z,24.64
2022-11-03T15:16:37.787Z,24.60
2022-11-03T15:19:05.091Z,24.60
2022-11-03T15:21:32.531Z,24.61
2022-11-03T15:26:45.826Z,24.57
2022-11-03T15:29:12.261Z,24.56
2022-11-03T15:31:39.338Z,24.57
2022-11-03T15:34:08.694Z,24.54
2022-11-03T15:36:35.710Z,24.56
2022-11-03T15:39:02.252Z,24.54
2022-11-03T15:41:28.703Z,24.51
2022-11-03T15:43:55.249Z,24.42
2022-11-03T15:46:21.654Z,24.30
2022-11-03T15:48:49.246Z,24.13
2022-11-03T15:51:15.948Z,24.07
2022-11-03T15:53:43.762Z,24.05
2022-11-03T15:56:10.472Z,24.03
2022-11-03T15:58:37.550Z,24.02
2022-11-03T16:01:05.192Z,24.01
2022-11-03T16:03:32.158Z,24.03
2022-11-03T16:05:59.264Z,24.04
2022-11-03T16:08:25.919Z,24.02
2022-11-03T16:10:57.703Z,23.97
2022-11-03T16:13:24.892Z,23.96
2022-11-03T16:15:51.789Z,23.90
2022-11-03T16:18:18.339Z,23.84
2022-11-03T16:20:44.886Z,23.79
2022-11-03T16:23:11.384Z,23.76
2022-11-03T16:25:37.866Z,23.71
2022-11-03T16:28:04.866Z,23.68
2022-11-03T16:30:31.758Z,23.66
2022-11-03T16:32:58.220Z,23.63
2022-11-03T16:35:24.774Z,23.59
2022-11-03T16:37:51.229Z,23.56
2022-11-03T16:40:19.745Z,23.54
2022-11-03T16:42:47.352Z,23.51
2022-11-03T16:45:22.152Z,23.48
2022-11-03T16:47:50.211Z,23.45
2022-11-03T16:50:17.808Z,23.41
2022-11-03T16:52:48.578Z,23.35
2022-11-03T16:55:16.654Z,23.35
2022-11-03T16:57:43.711Z,23.30
2022-11-03T17:00:13.765Z,23.27
2022-11-03T17:02:40.726Z,23.26
2022-11-03T17:05:08.075Z,23.21
2022-11-03T17:07:34.717Z,23.21
2022-11-03T17:10:01.431Z,23.17
2022-11-03T17:12:27.900Z,23.17
2022-11-03T17:14:56.783Z,23.14
2022-11-03T17:17:24.092Z,23.12
2022-11-03T17:19:51.437Z,23.11
2022-11-03T17:22:18.422Z,23.08
2022-11-03T17:24:44.840Z,23.06
2022-11-03T17:27:23.115Z,23.02
2022-11-03T17:29:53.524Z,23.00
2022-11-03T17:32:25.604Z,22.98
2022-11-03T17:34:56.336Z,22.99
2022-11-03T17:37:23.992Z,22.96
2022-11-03T17:39:51.100Z,22.95
2022-11-03T17:42:19.178Z,22.94
2022-11-03T17:44:47.602Z,22.93
2022-11-03T17:47:15.685Z,22.90
2022-11-03T17:49:43.299Z,22.88
2022-11-03T17:52:31.074Z,22.87
2022-11-03T17:54:59.308Z,22.86
2022-11-03T17:57:26.921Z,22.86
2022-11-03T17:59:55.865Z,22.84
2022-11-03T18:02:24.998Z,22.82
2022-11-03T18:04:57.840Z,22.78
2022-11-03T18:07:25.763Z,22.77
2022-11-03T18:09:52.621Z,22.77
2022-11-03T18:12:49.570Z,22.75
2022-11-03T18:15:20.552Z,22.73
2022-11-03T18:17:47.083Z,22.73
2022-11-03T18:20:17.510Z,22.68
2022-11-03T18:22:44.270Z,22.67
2022-11-03T18:25:20.071Z,22.64
2022-11-03T18:27:47.391Z,22.62
2022-11-03T18:30:16.947Z,22.64
2022-11-03T18:32:45.653Z,22.61
2022-11-03T18:35:24.623Z,22.59
2022-11-03T18:37:51.499Z,22.58
2022-11-03T18:40:20.272Z,22.59
2022-11-03T18:42:46.735Z,22.55
2022-11-03T18:45:16.015Z,22.56
2022-11-03T18:47:42.711Z,22.55
2022-11-03T18:50:17.412Z,22.53
2022-11-03T18:52:51.948Z,22.52
2022-11-03T18:55:18.757Z,22.49
2022-11-03T18:57:45.316Z,22.50
2022-11-03T19:00:18.987Z,22.50
2022-11-03T19:02:45.884Z,22.49
2022-11-03T19:05:14.195Z,22.47
2022-11-03T19:07:42.070Z,22.48
2022-11-03T19:10:13.014Z,22.45
2022-11-03T19:12:43.385Z,22.44
2022-11-03T19:15:17.734Z,22.42
2022-11-03T19:17:44.273Z,22.44
2022-11-03T19:20:14.608Z,22.42
2022-11-03T19:22:41.076Z,22.40
2022-11-03T19:25:08.125Z,22.37
2022-11-03T19:27:37.357Z,22.37
2022-11-03T19:30:05.090Z,22.34
2022-11-03T19:32:39.999Z,22.33
2022-11-03T19:35:14.515Z,22.33
2022-11-03T19:37:41.369Z,22.32
2022-11-03T19:40:13.190Z,22.30
2022-11-03T19:42:39.823Z,22.29
2022-11-03T19:45:14.464Z,22.29
2022-11-03T19:50:35.229Z,22.26
2022-11-03T19:53:05.562Z,22.24
2022-11-03T19:55:41.171Z,22.23
2022-11-03T19:58:19.188Z,22.24
2022-11-03T20:00:46.835Z,22.23
2022-11-03T20:03:14.335Z,22.21
2022-11-03T20:05:45.145Z,22.21
2022-11-03T20:08:18.861Z,22.20
2022-11-03T20:10:47.710Z,22.19
2022-11-03T20:13:16.291Z,22.19
2022-11-03T20:15:42.836Z,22.17
2022-11-03T20:18:12.855Z,22.15
2022-11-03T20:20:40.685Z,22.15
2022-11-03T20:23:13.641Z,22.15
2022-11-03T20:25:40.188Z,22.12
2022-11-03T20:28:17.445Z,22.12
2022-11-03T20:30:44.098Z,22.12
2022-11-03T20:33:15.568Z,22.12
2022-11-03T20:35:43.250Z,22.09
2022-11-03T20:38:12.165Z,22.08
2022-11-03T20:40:39.887Z,22.06
2022-11-03T20:43:07.572Z,22.06
2022-11-03T20:45:34.253Z,22.06
2022-11-03T20:48:00.857Z,22.04
2022-11-03T20:50:30.163Z,22.05
2022-11-03T20:52:56.628Z,22.02
2022-11-03T20:55:25.094Z,22.02
2022-11-03T20:57:53.265Z,22.02
2022-11-03T21:00:21.362Z,22.02
2022-11-03T21:02:49.337Z,21.99
2022-11-03T21:05:26.780Z,21.98
2022-11-03T21:07:54.949Z,21.98
2022-11-03T21:10:23.517Z,21.97
2022-11-03T21:15:36.624Z,21.96
2022-11-03T21:18:21.482Z,21.94
2022-11-03T21:20:47.919Z,21.94
2022-11-03T21:23:22.222Z,21.92
2022-11-03T21:25:49.247Z,21.92
2022-11-03T21:28:17.144Z,21.92
2022-11-03T21:30:44.115Z,21.90
2022-11-03T21:33:11.241Z,21.88
2022-11-03T21:35:38.433Z,21.85
2022-11-03T21:38:05.469Z,21.87
2022-11-03T21:40:32.224Z,21.88
2022-11-03T21:43:17.285Z,21.82
2022-11-03T21:45:44.251Z,21.83
2022-11-03T21:48:33.022Z,21.83
2022-11-03T21:51:02.877Z,21.81
2022-11-03T21:53:30.400Z,21.81
2022-11-03T21:55:57.113Z,21.81
2022-11-03T21:58:23.600Z,21.80
2022-11-03T22:00:50.190Z,21.78
2022-11-03T22:03:16.752Z,21.78
2022-11-03T22:05:43.738Z,21.77
2022-11-03T22:08:10.442Z,21.77
2022-11-03T22:10:38.909Z,21.76
2022-11-03T22:13:05.675Z,21.76
2022-11-03T22:15:51.018Z,21.74
2022-11-03T22:18:17.543Z,21.74
2022-11-03T22:21:02.706Z,21.73
2022-11-03T22:23:47.621Z,21.72
2022-11-03T22:26:34.456Z,21.72
2022-11-03T22:29:20.079Z,21.70
2022-11-03T22:31:46.962Z,21.69
2022-11-03T22:34:33.497Z,21.69
2022-11-03T22:37:00.020Z,21.67
2022-11-03T22:39:45.226Z,21.68
2022-11-03T22:42:31.574Z,21.65
2022-11-03T22:45:16.640Z,21.66
2022-11-03T22:47:43.113Z,21.64
2022-11-03T22:50:09.895Z,21.63
2022-11-03T22:52:36.388Z,21.64
2022-11-03T22:55:03.092Z,21.63
2022-11-03T22:57:29.552Z,21.61
2022-11-03T22:59:55.963Z,21.61
2022-11-03T23:02:22.549Z,21.60
2022-11-03T23:04:49.041Z,21.61
2022-11-03T23:07:15.476Z,21.60
2022-11-03T23:09:41.928Z,21.59
2022-11-03T23:12:08.376Z,21.58
2022-11-03T23:14:53.342Z,21.59
2022-11-03T23:17:19.786Z,21.59
2022-11-03T23:20:04.902Z,21.58
2022-11-03T23:22:31.346Z,21.58
2022-11-03T23:25:00.974Z,21.58
2022-11-03T23:27:28.066Z,21.55
2022-11-03T23:29:54.618Z,21.55
2022-11-03T23:32:21.183Z,21.54
2022-11-03T23:34:47.610Z,21.54
2022-11-03T23:37:14.373Z,21.53
2022-11-03T23:39:40.817Z,21.53
2022-11-03T23:42:07.502Z,21.54
2022-11-03T23:44:52.581Z,21.52
2022-11-03T23:47:37.480Z,21.52
2022-11-03T23:50:04.110Z,21.50
2022-11-03T23:52:30.566Z,21.50
2022-11-03T23:54:56.986Z,21.51
2022-11-03T23:57:42.259Z,21.50
